sensor_id;sensor_type;location;lat;lon;timestamp;P1;durP1;ratioP1;P2;durP2;ratioP2
68438;SDS011;55421;51.600;5.718;2023-04-01T00:01:26;4.00;;;1.60;;
68438;SDS011;55421;51.600;5.718;2023-04-01T00:03:52;3.30;;;1.20;;
68438;SDS011;55421;51.600;5.718;2023-04-01T00:06:20;3.20;;;1.00;;
68438;SDS011;55421;51.600;5.718;2023-04-01T00:08:46;4.20;;;1.00;;
68438;SDS011;55421;51.600;5.718;2023-04-01T00:11:14;2.70;;;0.90;;
68438;SDS011;55421;51.600;5.718;2023-04-01T00:13:42;2.40;;;1.00;;
68438;SDS011;55421;51.600;5.718;2023-04-01T00:16:09;3.60;;;1.00;;
68438;SDS011;55421;51.600;5.718;2023-04-01T00:18:36;2.40;;;1.10;;
68438;SDS011;55421;51.600;5.718;2023-04-01T00:21:06;2.20;;;0.60;;
68438;SDS011;55421;51.600;5.718;2023-04-01T00:23:33;2.40;;;1.00;;
68438;SDS011;55421;51.600;5.718;2023-04-01T00:26:01;3.10;;;0.80;;
68438;SDS011;55421;51.600;5.718;2023-04-01T00:28:28;2.00;;;0.90;;
68438;SDS011;55421;51.600;5.718;2023-04-01T00:30:55;3.90;;;1.00;;
68438;SDS011;55421;51.600;5.718;2023-04-01T00:33:22;1.40;;;0.70;;
68438;SDS011;55421;51.600;5.718;2023-04-01T00:35:48;3.90;;;1.00;;
68438;SDS011;55421;51.600;5.718;2023-04-01T00:38:15;1.90;;;0.80;;
68438;SDS011;55421;51.600;5.718;2023-04-01T00:40:45;2.10;;;1.10;;
68438;SDS011;55421;51.600;5.718;2023-04-01T00:43:16;1.70;;;0.90;;
68438;SDS011;55421;51.600;5.718;2023-04-01T00:45:49;2.10;;;1.00;;
68438;SDS011;55421;51.600;5.718;2023-04-01T00:48:19;1.80;;;1.00;;
68438;SDS011;55421;51.600;5.718;2023-04-01T00:50:53;2.40;;;1.00;;
68438;SDS011;55421;51.600;5.718;2023-04-01T00:53:23;3.50;;;1.40;;
68438;SDS011;55421;51.600;5.718;2023-04-01T00:55:58;3.00;;;1.10;;
68438;SDS011;55421;51.600;5.718;2023-04-01T00:58:32;2.90;;;1.10;;
68438;SDS011;55421;51.600;5.718;2023-04-01T01:01:04;3.70;;;1.10;;
68438;SDS011;55421;51.600;5.718;2023-04-01T01:03:32;2.10;;;1.00;;
68438;SDS011;55421;51.600;5.718;2023-04-01T01:12:13;2.20;;;1.10;;
68438;SDS011;55421;51.600;5.718;2023-04-01T01:15:09;5.90;;;1.60;;
68438;SDS011;55421;51.600;5.718;2023-04-01T01:17:49;2.80;;;1.50;;
68438;SDS011;55421;51.600;5.718;2023-04-01T01:27:11;2.80;;;1.70;;
68438;SDS011;55421;51.600;5.718;2023-04-01T01:33:06;3.80;;;1.80;;
68438;SDS011;55421;51.600;5.718;2023-04-01T01:38:23;2.70;;;2.10;;
68438;SDS011;55421;51.600;5.718;2023-04-01T01:40:55;2.10;;;1.50;;
68438;SDS011;55421;51.600;5.718;2023-04-01T01:43:27;2.90;;;2.00;;
68438;SDS011;55421;51.600;5.718;2023-04-01T01:46:04;3.30;;;2.40;;
68438;SDS011;55421;51.600;5.718;2023-04-01T01:48:36;3.10;;;2.10;;
68438;SDS011;55421;51.600;5.718;2023-04-01T01:51:07;1.80;;;1.70;;
68438;SDS011;55421;51.600;5.718;2023-04-01T01:53:34;3.90;;;2.20;;
68438;SDS011;55421;51.600;5.718;2023-04-01T01:56:02;3.60;;;2.30;;
68438;SDS011;55421;51.600;5.718;2023-04-01T01:58:32;2.20;;;2.00;;
68438;SDS011;55421;51.600;5.718;2023-04-01T02:01:18;2.70;;;2.30;;
68438;SDS011;55421;51.600;5.718;2023-04-01T02:03:51;2.80;;;2.60;;
68438;SDS011;55421;51.600;5.718;2023-04-01T02:06:22;3.10;;;2.10;;
68438;SDS011;55421;51.600;5.718;2023-04-01T02:11:32;2.20;;;2.00;;
68438;SDS011;55421;51.600;5.718;2023-04-01T02:14:16;3.70;;;2.80;;
68438;SDS011;55421;51.600;5.718;2023-04-01T02:19:33;4.30;;;3.90;;
68438;SDS011;55421;51.600;5.718;2023-04-01T02:22:09;3.90;;;3.50;;
68438;SDS011;55421;51.600;5.718;2023-04-01T02:24:40;3.70;;;3.40;;
68438;SDS011;55421;51.600;5.718;2023-04-01T02:27:09;4.10;;;3.40;;
68438;SDS011;55421;51.600;5.718;2023-04-01T02:29:37;3.40;;;3.10;;
68438;SDS011;55421;51.600;5.718;2023-04-01T02:32:05;3.50;;;3.20;;
68438;SDS011;55421;51.600;5.718;2023-04-01T02:34:33;3.20;;;2.90;;
68438;SDS011;55421;51.600;5.718;2023-04-01T02:37:00;4.10;;;3.40;;
68438;SDS011;55421;51.600;5.718;2023-04-01T02:39:27;2.90;;;2.60;;
68438;SDS011;55421;51.600;5.718;2023-04-01T02:41:54;3.20;;;3.00;;
68438;SDS011;55421;51.600;5.718;2023-04-01T02:44:21;5.80;;;3.40;;
68438;SDS011;55421;51.600;5.718;2023-04-01T02:46:48;3.40;;;3.10;;
68438;SDS011;55421;51.600;5.718;2023-04-01T02:49:14;5.50;;;3.70;;
68438;SDS011;55421;51.600;5.718;2023-04-01T02:51:41;4.90;;;4.40;;
68438;SDS011;55421;51.600;5.718;2023-04-01T02:54:07;4.50;;;3.70;;
68438;SDS011;55421;51.600;5.718;2023-04-01T02:56:34;5.10;;;4.60;;
68438;SDS011;55421;51.600;5.718;2023-04-01T02:59:00;5.20;;;4.30;;
68438;SDS011;55421;51.600;5.718;2023-04-01T03:01:26;5.60;;;4.80;;
68438;SDS011;55421;51.600;5.718;2023-04-01T03:03:53;6.50;;;5.10;;
68438;SDS011;55421;51.600;5.718;2023-04-01T03:06:19;6.00;;;5.40;;
68438;SDS011;55421;51.600;5.718;2023-04-01T03:08:46;4.80;;;4.20;;
68438;SDS011;55421;51.600;5.718;2023-04-01T03:11:13;6.80;;;5.40;;
68438;SDS011;55421;51.600;5.718;2023-04-01T03:13:39;6.90;;;4.90;;
68438;SDS011;55421;51.600;5.718;2023-04-01T03:16:06;8.30;;;5.90;;
68438;SDS011;55421;51.600;5.718;2023-04-01T03:18:33;8.30;;;5.60;;
68438;SDS011;55421;51.600;5.718;2023-04-01T03:21:21;6.40;;;4.70;;
68438;SDS011;55421;51.600;5.718;2023-04-01T03:23:49;5.00;;;4.30;;
68438;SDS011;55421;51.600;5.718;2023-04-01T03:26:17;8.40;;;6.20;;
68438;SDS011;55421;51.600;5.718;2023-04-01T03:28:44;6.60;;;4.70;;
68438;SDS011;55421;51.600;5.718;2023-04-01T03:31:11;8.40;;;6.00;;
68438;SDS011;55421;51.600;5.718;2023-04-01T03:33:37;8.40;;;6.30;;
68438;SDS011;55421;51.600;5.718;2023-04-01T03:36:04;7.80;;;5.00;;
68438;SDS011;55421;51.600;5.718;2023-04-01T03:38:34;7.20;;;5.50;;
68438;SDS011;55421;51.600;5.718;2023-04-01T03:41:01;8.30;;;5.90;;
68438;SDS011;55421;51.600;5.718;2023-04-01T03:43:28;8.90;;;5.40;;
68438;SDS011;55421;51.600;5.718;2023-04-01T03:45:55;8.60;;;5.70;;
68438;SDS011;55421;51.600;5.718;2023-04-01T03:48:24;7.20;;;4.90;;
68438;SDS011;55421;51.600;5.718;2023-04-01T03:50:52;8.10;;;5.60;;
68438;SDS011;55421;51.600;5.718;2023-04-01T03:53:18;10.10;;;5.90;;
68438;SDS011;55421;51.600;5.718;2023-04-01T03:55:45;9.30;;;5.10;;
68438;SDS011;55421;51.600;5.718;2023-04-01T03:58:13;8.80;;;5.60;;
68438;SDS011;55421;51.600;5.718;2023-04-01T04:00:39;7.90;;;5.70;;
68438;SDS011;55421;51.600;5.718;2023-04-01T04:03:06;6.50;;;5.10;;
68438;SDS011;55421;51.600;5.718;2023-04-01T04:05:33;7.10;;;5.00;;
68438;SDS011;55421;51.600;5.718;2023-04-01T04:07:59;5.20;;;4.20;;
68438;SDS011;55421;51.600;5.718;2023-04-01T04:10:26;6.20;;;4.90;;
68438;SDS011;55421;51.600;5.718;2023-04-01T04:12:55;6.50;;;4.90;;
68438;SDS011;55421;51.600;5.718;2023-04-01T04:15:22;4.10;;;3.20;;
68438;SDS011;55421;51.600;5.718;2023-04-01T04:17:49;6.50;;;4.80;;
68438;SDS011;55421;51.600;5.718;2023-04-01T04:20:15;6.60;;;4.70;;
68438;SDS011;55421;51.600;5.718;2023-04-01T04:22:42;6.00;;;4.50;;
68438;SDS011;55421;51.600;5.718;2023-04-01T04:25:08;5.30;;;4.40;;
68438;SDS011;55421;51.600;5.718;2023-04-01T04:27:35;5.00;;;4.50;;
68438;SDS011;55421;51.600;5.718;2023-04-01T04:30:03;3.40;;;3.10;;
68438;SDS011;55421;51.600;5.718;2023-04-01T04:32:31;5.20;;;3.70;;
68438;SDS011;55421;51.600;5.718;2023-04-01T04:34:58;4.60;;;3.80;;
68438;SDS011;55421;51.600;5.718;2023-04-01T04:37:24;5.20;;;4.00;;
68438;SDS011;55421;51.600;5.718;2023-04-01T04:39:52;4.40;;;3.80;;
68438;SDS011;55421;51.600;5.718;2023-04-01T04:42:18;5.40;;;3.70;;
68438;SDS011;55421;51.600;5.718;2023-04-01T04:44:45;4.90;;;4.10;;
68438;SDS011;55421;51.600;5.718;2023-04-01T04:47:11;3.80;;;3.20;;
68438;SDS011;55421;51.600;5.718;2023-04-01T04:49:38;4.20;;;3.60;;
68438;SDS011;55421;51.600;5.718;2023-04-01T04:52:04;3.80;;;3.40;;
68438;SDS011;55421;51.600;5.718;2023-04-01T04:54:31;3.90;;;3.50;;
68438;SDS011;55421;51.600;5.718;2023-04-01T04:56:57;3.60;;;3.30;;
68438;SDS011;55421;51.600;5.718;2023-04-01T04:59:24;2.50;;;2.30;;
68438;SDS011;55421;51.600;5.718;2023-04-01T05:01:50;3.80;;;3.10;;
68438;SDS011;55421;51.600;5.718;2023-04-01T05:04:17;2.50;;;2.30;;
68438;SDS011;55421;51.600;5.718;2023-04-01T05:06:43;3.20;;;2.90;;
68438;SDS011;55421;51.600;5.718;2023-04-01T05:09:11;4.50;;;2.90;;
68438;SDS011;55421;51.600;5.718;2023-04-01T05:11:38;2.90;;;2.60;;
68438;SDS011;55421;51.600;5.718;2023-04-01T05:14:04;3.10;;;2.80;;
68438;SDS011;55421;51.600;5.718;2023-04-01T05:16:31;2.90;;;2.70;;
68438;SDS011;55421;51.600;5.718;2023-04-01T05:18:57;3.80;;;2.90;;
68438;SDS011;55421;51.600;5.718;2023-04-01T05:21:24;3.40;;;3.10;;
68438;SDS011;55421;51.600;5.718;2023-04-01T05:23:51;3.80;;;3.40;;
68438;SDS011;55421;51.600;5.718;2023-04-01T05:26:18;3.00;;;2.60;;
68438;SDS011;55421;51.600;5.718;2023-04-01T05:28:44;3.40;;;3.10;;
68438;SDS011;55421;51.600;5.718;2023-04-01T05:31:11;2.60;;;2.40;;
68438;SDS011;55421;51.600;5.718;2023-04-01T05:33:37;4.50;;;3.60;;
68438;SDS011;55421;51.600;5.718;2023-04-01T05:36:09;3.70;;;3.30;;
68438;SDS011;55421;51.600;5.718;2023-04-01T05:38:37;4.00;;;3.60;;
68438;SDS011;55421;51.600;5.718;2023-04-01T05:41:04;3.60;;;3.20;;
68438;SDS011;55421;51.600;5.718;2023-04-01T05:43:31;3.80;;;3.30;;
68438;SDS011;55421;51.600;5.718;2023-04-01T05:45:57;4.40;;;3.60;;
68438;SDS011;55421;51.600;5.718;2023-04-01T05:48:24;4.80;;;3.90;;
68438;SDS011;55421;51.600;5.718;2023-04-01T05:50:50;3.50;;;3.00;;
68438;SDS011;55421;51.600;5.718;2023-04-01T05:53:17;4.50;;;3.70;;
68438;SDS011;55421;51.600;5.718;2023-04-01T05:55:43;4.20;;;3.80;;
68438;SDS011;55421;51.600;5.718;2023-04-01T05:58:10;4.30;;;3.90;;
68438;SDS011;55421;51.600;5.718;2023-04-01T06:00:36;4.10;;;3.60;;
68438;SDS011;55421;51.600;5.718;2023-04-01T06:03:03;4.00;;;3.60;;
68438;SDS011;55421;51.600;5.718;2023-04-01T06:05:38;4.80;;;3.80;;
68438;SDS011;55421;51.600;5.718;2023-04-01T06:08:17;4.50;;;4.00;;
68438;SDS011;55421;51.600;5.718;2023-04-01T06:25:32;7.40;;;5.60;;
68438;SDS011;55421;51.600;5.718;2023-04-01T06:28:42;7.10;;;5.50;;
68438;SDS011;55421;51.600;5.718;2023-04-01T06:31:44;8.80;;;7.10;;
68438;SDS011;55421;51.600;5.718;2023-04-01T06:37:30;10.30;;;7.40;;
68438;SDS011;55421;51.600;5.718;2023-04-01T06:40:39;8.10;;;5.90;;
68438;SDS011;55421;51.600;5.718;2023-04-01T06:50:21;6.90;;;5.90;;
68438;SDS011;55421;51.600;5.718;2023-04-01T06:53:17;8.10;;;5.90;;
68438;SDS011;55421;51.600;5.718;2023-04-01T06:56:08;9.40;;;6.50;;
68438;SDS011;55421;51.600;5.718;2023-04-01T06:58:40;7.00;;;5.70;;
68438;SDS011;55421;51.600;5.718;2023-04-01T07:01:16;11.60;;;7.50;;
68438;SDS011;55421;51.600;5.718;2023-04-01T07:03:53;8.50;;;5.90;;
68438;SDS011;55421;51.600;5.718;2023-04-01T07:06:36;9.20;;;6.90;;
68438;SDS011;55421;51.600;5.718;2023-04-01T07:09:12;6.10;;;4.70;;
68438;SDS011;55421;51.600;5.718;2023-04-01T07:11:45;8.70;;;6.30;;
68438;SDS011;55421;51.600;5.718;2023-04-01T07:14:33;11.20;;;7.10;;
68438;SDS011;55421;51.600;5.718;2023-04-01T07:17:16;8.20;;;5.90;;
68438;SDS011;55421;51.600;5.718;2023-04-01T07:20:05;7.40;;;5.40;;
68438;SDS011;55421;51.600;5.718;2023-04-01T07:22:56;8.50;;;6.50;;
68438;SDS011;55421;51.600;5.718;2023-04-01T07:25:47;8.30;;;5.80;;
68438;SDS011;55421;51.600;5.718;2023-04-01T07:28:17;10.60;;;7.50;;
68438;SDS011;55421;51.600;5.718;2023-04-01T07:31:15;8.00;;;5.70;;
68438;SDS011;55421;51.600;5.718;2023-04-01T07:36:47;10.30;;;6.30;;
68438;SDS011;55421;51.600;5.718;2023-04-01T07:40:39;11.20;;;6.60;;
68438;SDS011;55421;51.600;5.718;2023-04-01T07:42:57;10.70;;;6.40;;
68438;SDS011;55421;51.600;5.718;2023-04-01T07:45:56;10.60;;;6.30;;
68438;SDS011;55421;51.600;5.718;2023-04-01T07:51:44;11.00;;;6.00;;
68438;SDS011;55421;51.600;5.718;2023-04-01T07:57:22;7.40;;;4.40;;
68438;SDS011;55421;51.600;5.718;2023-04-01T08:00:19;9.80;;;5.50;;
68438;SDS011;55421;51.600;5.718;2023-04-01T08:03:14;8.70;;;5.60;;
68438;SDS011;55421;51.600;5.718;2023-04-01T08:05:55;11.50;;;6.80;;
68438;SDS011;55421;51.600;5.718;2023-04-01T08:17:28;11.20;;;5.60;;
68438;SDS011;55421;51.600;5.718;2023-04-01T08:23:27;11.40;;;6.20;;
68438;SDS011;55421;51.600;5.718;2023-04-01T08:26:39;12.90;;;5.20;;
68438;SDS011;55421;51.600;5.718;2023-04-01T08:29:12;12.00;;;6.30;;
68438;SDS011;55421;51.600;5.718;2023-04-01T08:31:54;9.70;;;5.80;;
68438;SDS011;55421;51.600;5.718;2023-04-01T08:34:32;10.70;;;7.00;;
68438;SDS011;55421;51.600;5.718;2023-04-01T08:39:50;12.60;;;6.80;;
68438;SDS011;55421;51.600;5.718;2023-04-01T08:51:41;9.40;;;6.10;;
68438;SDS011;55421;51.600;5.718;2023-04-01T08:54:34;10.20;;;6.80;;
68438;SDS011;55421;51.600;5.718;2023-04-01T08:57:44;11.10;;;7.20;;
68438;SDS011;55421;51.600;5.718;2023-04-01T09:00:30;12.00;;;7.70;;
68438;SDS011;55421;51.600;5.718;2023-04-01T09:03:14;11.30;;;6.90;;
68438;SDS011;55421;51.600;5.718;2023-04-01T09:06:06;12.20;;;6.90;;
68438;SDS011;55421;51.600;5.718;2023-04-01T09:08:51;8.40;;;5.80;;
68438;SDS011;55421;51.600;5.718;2023-04-01T09:26:48;13.90;;;7.90;;
68438;SDS011;55421;51.600;5.718;2023-04-01T09:29:23;16.70;;;8.90;;
68438;SDS011;55421;51.600;5.718;2023-04-01T09:38:48;13.90;;;7.70;;
68438;SDS011;55421;51.600;5.718;2023-04-01T09:41:39;17.10;;;8.50;;
68438;SDS011;55421;51.600;5.718;2023-04-01T09:44:35;11.70;;;7.80;;
68438;SDS011;55421;51.600;5.718;2023-04-01T10:10:25;9.70;;;6.40;;
68438;SDS011;55421;51.600;5.718;2023-04-01T10:22:48;7.00;;;5.10;;
68438;SDS011;55421;51.600;5.718;2023-04-01T10:36:57;7.70;;;5.60;;
68438;SDS011;55421;51.600;5.718;2023-04-01T10:40:19;8.50;;;5.60;;
68438;SDS011;55421;51.600;5.718;2023-04-01T10:46:15;8.70;;;6.10;;
68438;SDS011;55421;51.600;5.718;2023-04-01T10:49:06;8.60;;;6.40;;
68438;SDS011;55421;51.600;5.718;2023-04-01T10:55:09;7.70;;;5.80;;
68438;SDS011;55421;51.600;5.718;2023-04-01T10:58:11;5.90;;;4.50;;
68438;SDS011;55421;51.600;5.718;2023-04-01T11:13:30;4.70;;;4.00;;
68438;SDS011;55421;51.600;5.718;2023-04-01T11:43:13;8.10;;;7.00;;
68438;SDS011;55421;51.600;5.718;2023-04-01T11:52:05;8.80;;;6.90;;
68438;SDS011;55421;51.600;5.718;2023-04-01T11:57:51;9.60;;;7.70;;
68438;SDS011;55421;51.600;5.718;2023-04-01T12:00:45;11.60;;;7.80;;
68438;SDS011;55421;51.600;5.718;2023-04-01T12:03:46;8.70;;;7.00;;
68438;SDS011;55421;51.600;5.718;2023-04-01T12:07:02;9.20;;;7.50;;
68438;SDS011;55421;51.600;5.718;2023-04-01T12:10:33;11.00;;;8.70;;
68438;SDS011;55421;51.600;5.718;2023-04-01T12:13:27;11.40;;;8.30;;
68438;SDS011;55421;51.600;5.718;2023-04-01T12:16:13;11.90;;;8.70;;
68438;SDS011;55421;51.600;5.718;2023-04-01T12:18:57;11.80;;;8.60;;
68438;SDS011;55421;51.600;5.718;2023-04-01T12:24:29;9.40;;;7.20;;
68438;SDS011;55421;51.600;5.718;2023-04-01T12:33:15;7.40;;;6.40;;
68438;SDS011;55421;51.600;5.718;2023-04-01T12:35:56;8.50;;;7.00;;
68438;SDS011;55421;51.600;5.718;2023-04-01T12:44:33;5.40;;;4.10;;
68438;SDS011;55421;51.600;5.718;2023-04-01T12:47:48;5.10;;;3.60;;
68438;SDS011;55421;51.600;5.718;2023-04-01T12:53:20;7.00;;;4.60;;
68438;SDS011;55421;51.600;5.718;2023-04-01T12:56:14;4.50;;;3.40;;
68438;SDS011;55421;51.600;5.718;2023-04-01T13:14:07;3.80;;;2.70;;
68438;SDS011;55421;51.600;5.718;2023-04-01T13:17:13;3.50;;;3.20;;
68438;SDS011;55421;51.600;5.718;2023-04-01T13:19:48;4.00;;;3.60;;
68438;SDS011;55421;51.600;5.718;2023-04-01T13:28:00;5.50;;;4.20;;
68438;SDS011;55421;51.600;5.718;2023-04-01T13:30:44;3.70;;;3.20;;
68438;SDS011;55421;51.600;5.718;2023-04-01T13:33:40;3.60;;;3.00;;
68438;SDS011;55421;51.600;5.718;2023-04-01T13:36:44;4.70;;;3.90;;
68438;SDS011;55421;51.600;5.718;2023-04-01T13:54:37;2.90;;;2.70;;
68438;SDS011;55421;51.600;5.718;2023-04-01T13:57:34;2.50;;;2.10;;
68438;SDS011;55421;51.600;5.718;2023-04-01T14:03:10;3.90;;;3.20;;
68438;SDS011;55421;51.600;5.718;2023-04-01T14:05:59;3.80;;;3.30;;
68438;SDS011;55421;51.600;5.718;2023-04-01T14:08:58;4.20;;;3.40;;
68438;SDS011;55421;51.600;5.718;2023-04-01T14:15:03;3.60;;;3.20;;
68438;SDS011;55421;51.600;5.718;2023-04-01T14:18:08;3.80;;;3.20;;
68438;SDS011;55421;51.600;5.718;2023-04-01T14:20:56;4.50;;;4.10;;
68438;SDS011;55421;51.600;5.718;2023-04-01T14:29:52;4.00;;;3.50;;
68438;SDS011;55421;51.600;5.718;2023-04-01T14:36:25;5.20;;;3.80;;
68438;SDS011;55421;51.600;5.718;2023-04-01T14:39:38;6.40;;;4.10;;
68438;SDS011;55421;51.600;5.718;2023-04-01T14:45:54;5.30;;;4.00;;
68438;SDS011;55421;51.600;5.718;2023-04-01T14:49:01;6.50;;;4.90;;
68438;SDS011;55421;51.600;5.718;2023-04-01T14:51:34;4.80;;;4.00;;
68438;SDS011;55421;51.600;5.718;2023-04-01T14:56:45;4.60;;;3.60;;
68438;SDS011;55421;51.600;5.718;2023-04-01T14:59:28;4.70;;;3.70;;
68438;SDS011;55421;51.600;5.718;2023-04-01T15:05:07;6.20;;;4.40;;
68438;SDS011;55421;51.600;5.718;2023-04-01T15:10:42;5.00;;;4.50;;
68438;SDS011;55421;51.600;5.718;2023-04-01T15:13:16;5.20;;;3.90;;
68438;SDS011;55421;51.600;5.718;2023-04-01T15:19:24;5.70;;;3.50;;
68438;SDS011;55421;51.600;5.718;2023-04-01T15:22:28;5.80;;;3.90;;
68438;SDS011;55421;51.600;5.718;2023-04-01T15:31:25;5.50;;;4.40;;
68438;SDS011;55421;51.600;5.718;2023-04-01T15:34:23;7.30;;;4.50;;
68438;SDS011;55421;51.600;5.718;2023-04-01T15:40:44;6.50;;;4.60;;
68438;SDS011;55421;51.600;5.718;2023-04-01T15:43:41;7.30;;;4.80;;
68438;SDS011;55421;51.600;5.718;2023-04-01T15:46:41;6.10;;;4.50;;
68438;SDS011;55421;51.600;5.718;2023-04-01T15:49:37;5.70;;;4.40;;
68438;SDS011;55421;51.600;5.718;2023-04-01T15:52:35;7.00;;;5.10;;
68438;SDS011;55421;51.600;5.718;2023-04-01T15:58:23;7.10;;;5.20;;
68438;SDS011;55421;51.600;5.718;2023-04-01T16:01:15;4.50;;;3.70;;
68438;SDS011;55421;51.600;5.718;2023-04-01T16:07:18;6.30;;;4.30;;
68438;SDS011;55421;51.600;5.718;2023-04-01T16:10:21;5.30;;;4.30;;
68438;SDS011;55421;51.600;5.718;2023-04-01T16:15:59;7.10;;;5.50;;
68438;SDS011;55421;51.600;5.718;2023-04-01T16:19:26;8.50;;;5.60;;
68438;SDS011;55421;51.600;5.718;2023-04-01T16:21:54;7.80;;;5.30;;
68438;SDS011;55421;51.600;5.718;2023-04-01T16:24:56;7.40;;;5.30;;
68438;SDS011;55421;51.600;5.718;2023-04-01T16:27:58;7.30;;;5.10;;
68438;SDS011;55421;51.600;5.718;2023-04-01T16:30:38;5.00;;;4.30;;
68438;SDS011;55421;51.600;5.718;2023-04-01T16:36:20;6.80;;;5.40;;
68438;SDS011;55421;51.600;5.718;2023-04-01T16:39:13;6.80;;;4.90;;
68438;SDS011;55421;51.600;5.718;2023-04-01T16:47:36;7.10;;;4.90;;
68438;SDS011;55421;51.600;5.718;2023-04-01T16:50:42;6.60;;;5.00;;
68438;SDS011;55421;51.600;5.718;2023-04-01T16:53:25;6.50;;;5.30;;
68438;SDS011;55421;51.600;5.718;2023-04-01T16:56:24;6.60;;;5.20;;
68438;SDS011;55421;51.600;5.718;2023-04-01T16:59:02;6.60;;;5.20;;
68438;SDS011;55421;51.600;5.718;2023-04-01T17:01:44;8.40;;;5.70;;
68438;SDS011;55421;51.600;5.718;2023-04-01T17:04:43;9.00;;;5.90;;
68438;SDS011;55421;51.600;5.718;2023-04-01T17:13:27;8.40;;;5.10;;
68438;SDS011;55421;51.600;5.718;2023-04-01T17:19:32;7.60;;;4.90;;
68438;SDS011;55421;51.600;5.718;2023-04-01T17:22:31;5.80;;;4.70;;
68438;SDS011;55421;51.600;5.718;2023-04-01T17:28:14;4.60;;;3.60;;
68438;SDS011;55421;51.600;5.718;2023-04-01T17:31:23;3.80;;;3.40;;
68438;SDS011;55421;51.600;5.718;2023-04-01T17:37:28;6.10;;;4.80;;
68438;SDS011;55421;51.600;5.718;2023-04-01T17:40:19;4.80;;;4.10;;
68438;SDS011;55421;51.600;5.718;2023-04-01T17:52:52;3.90;;;3.50;;
68438;SDS011;55421;51.600;5.718;2023-04-01T18:04:37;4.60;;;3.10;;
68438;SDS011;55421;51.600;5.718;2023-04-01T18:07:26;4.90;;;3.70;;
68438;SDS011;55421;51.600;5.718;2023-04-01T18:13:04;7.30;;;4.20;;
68438;SDS011;55421;51.600;5.718;2023-04-01T18:27:53;4.40;;;4.00;;
68438;SDS011;55421;51.600;5.718;2023-04-01T18:30:29;4.40;;;3.90;;
68438;SDS011;55421;51.600;5.718;2023-04-01T18:33:29;4.30;;;3.80;;
68438;SDS011;55421;51.600;5.718;2023-04-01T18:36:44;4.20;;;3.80;;
68438;SDS011;55421;51.600;5.718;2023-04-01T18:39:33;4.50;;;3.70;;
68438;SDS011;55421;51.600;5.718;2023-04-01T18:42:21;5.50;;;4.30;;
68438;SDS011;55421;51.600;5.718;2023-04-01T18:44:59;5.10;;;4.60;;
68438;SDS011;55421;51.600;5.718;2023-04-01T18:47:42;4.70;;;4.20;;
68438;SDS011;55421;51.600;5.718;2023-04-01T18:50:36;5.00;;;4.10;;
68438;SDS011;55421;51.600;5.718;2023-04-01T18:53:25;5.60;;;4.20;;
68438;SDS011;55421;51.600;5.718;2023-04-01T18:56:06;4.30;;;3.90;;
68438;SDS011;55421;51.600;5.718;2023-04-01T19:01:36;6.80;;;5.30;;
68438;SDS011;55421;51.600;5.718;2023-04-01T19:04:33;5.80;;;5.20;;
68438;SDS011;55421;51.600;5.718;2023-04-01T19:07:50;5.00;;;4.40;;
68438;SDS011;55421;51.600;5.718;2023-04-01T19:13:29;6.30;;;5.50;;
68438;SDS011;55421;51.600;5.718;2023-04-01T19:16:12;8.00;;;6.20;;
68438;SDS011;55421;51.600;5.718;2023-04-01T19:18:58;8.00;;;5.90;;
68438;SDS011;55421;51.600;5.718;2023-04-01T19:21:47;8.60;;;6.30;;
68438;SDS011;55421;51.600;5.718;2023-04-01T19:24:53;7.00;;;6.20;;
68438;SDS011;55421;51.600;5.718;2023-04-01T19:27:46;6.60;;;5.10;;
68438;SDS011;55421;51.600;5.718;2023-04-01T19:36:11;7.40;;;6.00;;
68438;SDS011;55421;51.600;5.718;2023-04-01T19:38:58;8.00;;;6.40;;
68438;SDS011;55421;51.600;5.718;2023-04-01T19:41:53;8.90;;;7.00;;
68438;SDS011;55421;51.600;5.718;2023-04-01T19:44:46;7.20;;;6.20;;
68438;SDS011;55421;51.600;5.718;2023-04-01T19:47:21;6.70;;;5.50;;
68438;SDS011;55421;51.600;5.718;2023-04-01T19:52:50;8.00;;;6.90;;
68438;SDS011;55421;51.600;5.718;2023-04-01T19:55:39;7.30;;;6.40;;
68438;SDS011;55421;51.600;5.718;2023-04-01T19:58:26;7.60;;;6.50;;
68438;SDS011;55421;51.600;5.718;2023-04-01T20:04:34;7.40;;;6.40;;
68438;SDS011;55421;51.600;5.718;2023-04-01T20:07:28;8.60;;;6.90;;
68438;SDS011;55421;51.600;5.718;2023-04-01T20:10:17;7.40;;;6.50;;
68438;SDS011;55421;51.600;5.718;2023-04-01T20:13:11;8.40;;;6.80;;
68438;SDS011;55421;51.600;5.718;2023-04-01T20:16:01;9.20;;;6.60;;
68438;SDS011;55421;51.600;5.718;2023-04-01T20:24:20;6.70;;;5.20;;
68438;SDS011;55421;51.600;5.718;2023-04-01T20:27:14;7.80;;;7.00;;
68438;SDS011;55421;51.600;5.718;2023-04-01T20:45:45;8.10;;;6.60;;
68438;SDS011;55421;51.600;5.718;2023-04-01T20:48:50;6.70;;;5.40;;
68438;SDS011;55421;51.600;5.718;2023-04-01T20:51:31;7.50;;;6.40;;
68438;SDS011;55421;51.600;5.718;2023-04-01T20:57:21;7.10;;;5.90;;
68438;SDS011;55421;51.600;5.718;2023-04-01T21:00:11;7.20;;;6.20;;
68438;SDS011;55421;51.600;5.718;2023-04-01T21:06:20;8.30;;;6.90;;
68438;SDS011;55421;51.600;5.718;2023-04-01T21:15:47;8.40;;;6.50;;
68438;SDS011;55421;51.600;5.718;2023-04-01T21:38:48;9.60;;;7.70;;
68438;SDS011;55421;51.600;5.718;2023-04-01T21:41:56;9.20;;;7.80;;
68438;SDS011;55421;51.600;5.718;2023-04-01T21:56:44;6.90;;;6.20;;
68438;SDS011;55421;51.600;5.718;2023-04-01T22:02:51;8.40;;;7.20;;
68438;SDS011;55421;51.600;5.718;2023-04-01T22:05:37;9.40;;;6.30;;
68438;SDS011;55421;51.600;5.718;2023-04-01T22:08:31;8.30;;;6.50;;
68438;SDS011;55421;51.600;5.718;2023-04-01T22:13:52;8.80;;;7.50;;
68438;SDS011;55421;51.600;5.718;2023-04-01T22:16:36;8.50;;;6.80;;
68438;SDS011;55421;51.600;5.718;2023-04-01T22:19:22;8.00;;;7.20;;
68438;SDS011;55421;51.600;5.718;2023-04-01T22:22:07;7.80;;;6.00;;
68438;SDS011;55421;51.600;5.718;2023-04-01T22:25:08;6.60;;;5.90;;
68438;SDS011;55421;51.600;5.718;2023-04-01T22:27:55;6.70;;;5.90;;
68438;SDS011;55421;51.600;5.718;2023-04-01T22:30:32;6.30;;;5.50;;
68438;SDS011;55421;51.600;5.718;2023-04-01T22:36:17;7.90;;;6.80;;
68438;SDS011;55421;51.600;5.718;2023-04-01T22:42:18;9.90;;;8.10;;
68438;SDS011;55421;51.600;5.718;2023-04-01T22:50:50;5.50;;;4.80;;
68438;SDS011;55421;51.600;5.718;2023-04-01T22:56:43;7.70;;;6.60;;
68438;SDS011;55421;51.600;5.718;2023-04-01T22:59:24;8.00;;;7.00;;
68438;SDS011;55421;51.600;5.718;2023-04-01T23:02:07;8.90;;;7.20;;
68438;SDS011;55421;51.600;5.718;2023-04-01T23:04:57;7.50;;;6.40;;
68438;SDS011;55421;51.600;5.718;2023-04-01T23:10:22;9.00;;;7.60;;
68438;SDS011;55421;51.600;5.718;2023-04-01T23:12:58;12.60;;;8.60;;
68438;SDS011;55421;51.600;5.718;2023-04-01T23:15:28;10.00;;;8.10;;
68438;SDS011;55421;51.600;5.718;2023-04-01T23:20:52;9.00;;;7.90;;
68438;SDS011;55421;51.600;5.718;2023-04-01T23:23:47;10.30;;;8.30;;
68438;SDS011;55421;51.600;5.718;2023-04-01T23:26:55;10.40;;;8.80;;
68438;SDS011;55421;51.600;5.718;2023-04-01T23:29:27;10.30;;;7.80;;
68438;SDS011;55421;51.600;5.718;2023-04-01T23:34:35;8.50;;;7.30;;
68438;SDS011;55421;51.600;5.718;2023-04-01T23:37:05;11.10;;;8.00;;
68438;SDS011;55421;51.600;5.718;2023-04-01T23:39:41;9.10;;;7.80;;
68438;SDS011;55421;51.600;5.718;2023-04-01T23:42:23;9.60;;;7.90;;
68438;SDS011;55421;51.600;5.718;2023-04-01T23:45:17;7.70;;;6.60;;
68438;SDS011;55421;51.600;5.718;2023-04-01T23:47:47;8.20;;;6.70;;
68438;SDS011;55421;51.600;5.718;2023-04-01T23:50:18;9.20;;;6.90;;
68438;SDS011;55421;51.600;5.718;2023-04-01T23:52:54;8.30;;;6.80;;
68438;SDS011;55421;51.600;5.718;2023-04-01T23:55:30;9.80;;;7.10;;
68438;SDS011;55421;51.600;5.718;2023-04-01T23:58:12;7.10;;;6.10;;
